Terminal Aerodrome Forecast
Issued by NWS

Home | Current Version | Previous Version | Text Only | Print | Product List | Glossary On
Versions: 1 2 3 4 5 6 7 8 9 10 11 12 13 14 15 16 17 18
467
FTUS45 KABQ 212340
TAFTCC
TAF
KTCC 212340Z 2200/2224 20011KT P6SM VCSH SCT060 BKN100
      TEMPO 2200/2203 25015G25KT
     FM220300 25010KT P6SM SCT060 BKN100
     FM220500 29011KT P6SM VCSH SCT050 BKN090
     FM220800 36008KT P6SM BKN100
     FM221800 03011KT P6SM VCSH SCT030 BKN060 PROB30 2221/2224
      02016G26KT 6SM -TSRA SCT025 BKN050CB=

USA.gov is the U.S. government's official web portal to all federal, state and local government web resources and services.